Terminal Aerodrome Forecast
Issued by NWS Upton, NY

Home | Current Version | Previous Version | Text Only | Print | Product List | Glossary On
Versions: 1 2 3 4 5 6 7 8 9 10 11 12 13 14 15 16 17 18 19 20 21 22 23 24 25 26
000
FTUS41 KOKX 222356
TAFBDR
TAF
KBDR 222356Z 2300/2324 31012G21KT P6SM BKN060
     FM230300 33010G18KT P6SM SCT120
     FM230600 32008KT P6SM SKC
     FM231700 26011KT P6SM SKC
     FM231900 23011KT P6SM SKC=

USA.gov is the U.S. government's official web portal to all federal, state and local government web resources and services.